createdAt,value
2018-09-23T00:00:35.075Z,21.67
2018-09-23T00:03:03.347Z,21.77
2018-09-23T00:05:31.683Z,20.10
2018-09-23T00:07:59.940Z,19.87
2018-09-23T00:10:28.256Z,21.87
2018-09-23T00:12:56.571Z,23.10
2018-09-23T00:15:24.859Z,24.17
2018-09-23T00:17:53.208Z,24.13
2018-09-23T00:20:21.584Z,26.03
2018-09-23T00:22:50.028Z,25.53
2018-09-23T00:25:18.412Z,29.87
2018-09-23T00:27:46.928Z,28.23
2018-09-23T00:30:15.265Z,30.63
2018-09-23T00:32:43.607Z,30.73
2018-09-23T00:35:11.936Z,33.00
2018-09-23T00:37:40.301Z,32.53
2018-09-23T00:40:08.612Z,31.67
2018-09-23T00:42:37.516Z,34.77
2018-09-23T00:45:05.841Z,33.70
2018-09-23T00:47:34.151Z,36.30
2018-09-23T00:50:02.440Z,35.90
2018-09-23T00:52:30.719Z,36.17
2018-09-23T00:54:59.132Z,38.27
2018-09-23T00:57:27.385Z,32.60
2018-09-23T00:59:55.696Z,34.50
2018-09-23T01:02:24.065Z,31.93
2018-09-23T01:07:30.068Z,32.47
2018-09-23T01:09:58.344Z,35.83
2018-09-23T01:12:26.696Z,34.63
2018-09-23T01:14:54.940Z,33.07
2018-09-23T01:17:23.312Z,30.07
2018-09-23T01:19:51.656Z,36.00
2018-09-23T01:22:20.832Z,30.77
2018-09-23T01:24:49.264Z,29.13
2018-09-23T01:27:17.556Z,30.43
2018-09-23T01:29:45.880Z,30.43
2018-09-23T01:32:14.240Z,31.00
2018-09-23T01:34:42.868Z,34.17
2018-09-23T01:37:11.168Z,31.37
2018-09-23T01:39:39.481Z,29.27
2018-09-23T01:42:07.825Z,30.77
2018-09-23T01:44:36.105Z,32.50
2018-09-23T01:47:04.388Z,32.77
2018-09-23T01:49:32.666Z,32.43
2018-09-23T01:52:01.008Z,31.77
2018-09-23T01:54:29.332Z,34.70
2018-09-23T01:56:57.622Z,32.33
2018-09-23T01:59:25.918Z,31.93
2018-09-23T02:01:54.173Z,32.90
2018-09-23T02:04:22.456Z,35.07
2018-09-23T02:06:50.720Z,33.93
2018-09-23T02:09:19.010Z,34.43
2018-09-23T02:11:47.553Z,38.43
2018-09-23T02:14:15.897Z,33.07
2018-09-23T02:16:44.201Z,36.67
2018-09-23T02:19:12.507Z,33.33
2018-09-23T02:21:40.837Z,32.43
2018-09-23T02:24:09.173Z,33.53
2018-09-23T02:26:37.613Z,31.60
2018-09-23T02:29:05.901Z,33.77
2018-09-23T02:31:34.181Z,32.43
2018-09-23T02:34:02.439Z,33.03
2018-09-23T02:36:30.708Z,31.37
2018-09-23T02:38:59.002Z,32.07
2018-09-23T02:41:27.325Z,29.87
2018-09-23T02:43:55.677Z,29.53
2018-09-23T02:46:23.991Z,29.33
2018-09-23T02:48:52.224Z,28.33
2018-09-23T02:51:20.500Z,27.80
2018-09-23T02:53:48.777Z,27.53
2018-09-23T02:56:17.040Z,28.80
2018-09-23T02:58:45.321Z,31.00
2018-09-23T03:01:13.598Z,27.33
2018-09-23T03:03:42.205Z,28.47
2018-09-23T03:06:10.484Z,28.47
2018-09-23T03:08:38.739Z,26.20
2018-09-23T03:11:06.986Z,27.17
2018-09-23T03:13:35.321Z,26.20
2018-09-23T03:16:03.606Z,25.87
2018-09-23T03:18:31.918Z,25.17
2018-09-23T03:21:00.297Z,24.83
2018-09-23T03:23:28.649Z,25.10
2018-09-23T03:25:56.919Z,24.10
2018-09-23T03:28:31.742Z,24.13
2018-09-23T03:31:00.000Z,24.30
2018-09-23T03:33:28.274Z,25.67
2018-09-23T03:35:56.707Z,24.93
2018-09-23T03:38:24.974Z,25.10
2018-09-23T03:40:53.214Z,27.67
2018-09-23T03:43:22.051Z,23.83
2018-09-23T03:45:50.310Z,25.23
2018-09-23T03:48:18.591Z,25.73
2018-09-23T03:50:46.879Z,26.27
2018-09-23T03:53:15.183Z,27.40
2018-09-23T03:55:43.503Z,25.80
2018-09-23T03:58:11.787Z,24.80
2018-09-23T04:00:40.064Z,25.70
2018-09-23T04:03:08.337Z,25.47
2018-09-23T04:05:36.674Z,26.60
2018-09-23T04:08:05.102Z,24.67
2018-09-23T04:10:33.369Z,29.27
2018-09-23T04:13:01.633Z,23.50
2018-09-23T04:15:29.961Z,23.80
2018-09-23T04:17:58.222Z,23.83
2018-09-23T04:20:26.493Z,23.07
2018-09-23T04:22:54.791Z,24.30
2018-09-23T04:25:23.345Z,23.50
2018-09-23T04:27:51.753Z,27.37
2018-09-23T04:30:21.157Z,25.37
2018-09-23T04:32:49.878Z,24.27
2018-09-23T04:35:18.727Z,25.03
2018-09-23T04:37:47.592Z,26.00
2018-09-23T04:40:15.889Z,25.00
2018-09-23T04:42:44.181Z,23.40
2018-09-23T04:45:12.449Z,23.80
2018-09-23T04:47:40.778Z,24.90
2018-09-23T04:50:09.062Z,28.03
2018-09-23T04:52:37.366Z,27.30
2018-09-23T04:55:05.665Z,25.27
2018-09-23T04:57:33.930Z,27.30
2018-09-23T05:00:02.194Z,27.97
2018-09-23T05:02:30.510Z,31.10
2018-09-23T05:04:58.802Z,25.63
2018-09-23T05:07:27.210Z,25.83
2018-09-23T05:09:55.505Z,26.57
2018-09-23T05:12:23.797Z,29.30
2018-09-23T05:14:52.045Z,27.37
2018-09-23T05:17:20.334Z,25.33
2018-09-23T05:19:48.691Z,25.73
2018-09-23T05:22:16.982Z,26.27
2018-09-23T05:24:46.298Z,25.63
2018-09-23T05:27:14.610Z,25.27
2018-09-23T05:29:42.935Z,24.97
2018-09-23T05:32:11.366Z,26.13
2018-09-23T05:34:39.662Z,25.17
2018-09-23T05:37:08.047Z,25.23
2018-09-23T05:39:36.490Z,29.30
2018-09-23T05:42:04.755Z,24.80
2018-09-23T05:44:39.857Z,25.75
2018-09-23T05:47:08.130Z,24.47
2018-09-23T05:49:36.690Z,25.37
2018-09-23T05:52:05.032Z,25.03
2018-09-23T05:54:33.379Z,23.20
2018-09-23T05:57:01.734Z,23.50
2018-09-23T05:59:30.170Z,25.40
2018-09-23T06:01:58.635Z,23.33
2018-09-23T06:04:26.963Z,26.40
2018-09-23T06:06:55.334Z,26.00
2018-09-23T06:09:23.599Z,24.47
2018-09-23T06:11:51.862Z,25.20
2018-09-23T06:14:20.254Z,23.67
2018-09-23T06:16:48.566Z,25.37
2018-09-23T06:19:16.888Z,25.03
2018-09-23T06:21:45.182Z,24.97
2018-09-23T06:24:13.551Z,25.57
2018-09-23T06:26:41.902Z,24.95
2018-09-23T06:29:10.367Z,24.00
2018-09-23T06:31:38.648Z,25.03
2018-09-23T06:34:06.953Z,23.47
2018-09-23T06:36:35.284Z,23.80
2018-09-23T06:39:04.736Z,23.07
2018-09-23T06:41:33.120Z,23.23
2018-09-23T06:44:01.443Z,25.10
2018-09-23T06:46:29.723Z,23.00
2018-09-23T06:48:57.959Z,21.80
2018-09-23T06:51:26.219Z,23.03
2018-09-23T06:53:54.543Z,22.23
2018-09-23T06:56:23.388Z,22.77
2018-09-23T06:58:51.696Z,22.47
2018-09-23T07:01:20.085Z,22.33
2018-09-23T07:03:48.375Z,22.53
2018-09-23T07:06:16.663Z,21.83
2018-09-23T07:08:44.967Z,23.27
2018-09-23T07:11:13.400Z,20.50
2018-09-23T07:13:41.712Z,21.83
2018-09-23T07:16:10.117Z,21.10
2018-09-23T07:18:38.607Z,20.20
2018-09-23T07:21:06.896Z,22.43
2018-09-23T07:23:35.346Z,22.27
2018-09-23T07:26:03.627Z,20.17
2018-09-23T07:28:31.944Z,19.90
2018-09-23T07:31:00.376Z,19.80
2018-09-23T07:33:28.848Z,20.20
2018-09-23T07:35:57.219Z,19.53
2018-09-23T07:38:25.623Z,18.07
2018-09-23T07:40:54.176Z,19.07
2018-09-23T07:43:23.716Z,18.70
2018-09-23T07:45:52.177Z,17.87
2018-09-23T07:48:20.660Z,18.33
2018-09-23T07:50:49.120Z,17.03
2018-09-23T07:53:17.464Z,18.10
2018-09-23T07:55:46.175Z,16.63
2018-09-23T07:58:14.595Z,15.80
2018-09-23T08:00:43.063Z,16.10
2018-09-23T08:03:11.648Z,16.50
2018-09-23T08:05:40.497Z,16.37
2018-09-23T08:08:09.085Z,17.27
2018-09-23T08:10:37.788Z,17.55
2018-09-23T08:13:07.495Z,15.57
2018-09-23T08:15:35.717Z,15.47
2018-09-23T08:18:04.100Z,16.20
2018-09-23T08:20:32.503Z,18.37
2018-09-23T08:23:00.912Z,15.90
2018-09-23T08:25:29.446Z,18.27
2018-09-23T08:27:57.818Z,15.07
2018-09-23T08:30:26.226Z,15.20
2018-09-23T08:32:54.589Z,15.37
2018-09-23T08:35:23.700Z,16.83
2018-09-23T08:37:52.137Z,16.83
2018-09-23T08:40:20.456Z,16.63
2018-09-23T08:42:48.749Z,16.03
2018-09-23T08:45:17.209Z,15.17
2018-09-23T08:47:45.574Z,16.40
2018-09-23T08:50:13.910Z,17.40
2018-09-23T08:52:42.221Z,17.67
2018-09-23T08:55:10.658Z,17.37
2018-09-23T08:57:38.991Z,17.13
2018-09-23T09:00:10.289Z,16.00
2018-09-23T09:02:38.573Z,16.53
2018-09-23T09:05:07.198Z,14.50
2018-09-23T09:07:35.585Z,17.13
2018-09-23T09:10:04.085Z,18.07
2018-09-23T09:12:32.974Z,17.32
2018-09-23T09:15:01.430Z,14.80
2018-09-23T09:17:30.177Z,16.73
2018-09-23T09:19:58.688Z,14.50
2018-09-23T09:22:27.442Z,15.87
2018-09-23T09:24:55.901Z,13.23
2018-09-23T09:27:24.497Z,18.03
2018-09-23T09:29:52.570Z,17.00
2018-09-23T09:32:21.350Z,16.03
2018-09-23T09:34:55.989Z,21.03
2018-09-23T09:37:24.099Z,16.30
2018-09-23T09:39:52.146Z,16.03
2018-09-23T09:42:20.218Z,19.17
2018-09-23T09:44:48.342Z,17.67
2018-09-23T09:47:16.382Z,21.10
2018-09-23T09:49:44.483Z,19.57
2018-09-23T09:52:12.551Z,17.43
2018-09-23T09:54:40.576Z,18.93
2018-09-23T09:57:08.679Z,16.53
2018-09-23T09:59:36.762Z,19.20
2018-09-23T10:02:04.810Z,20.70
2018-09-23T10:04:32.857Z,20.50
2018-09-23T10:07:00.934Z,20.33
2018-09-23T10:09:29.058Z,21.83
2018-09-23T10:11:57.299Z,19.50
2018-09-23T10:14:25.490Z,21.03
2018-09-23T10:16:53.598Z,21.77
2018-09-23T10:19:21.911Z,21.57
2018-09-23T10:21:50.230Z,21.93
2018-09-23T10:24:18.635Z,25.87
2018-09-23T10:26:46.987Z,24.13
2018-09-23T10:29:15.454Z,23.40
2018-09-23T10:31:43.628Z,25.53
2018-09-23T10:34:11.608Z,30.77
2018-09-23T10:36:40.294Z,26.33
2018-09-23T10:39:08.834Z,30.40
2018-09-23T10:41:36.875Z,31.67
2018-09-23T10:44:05.351Z,33.90
2018-09-23T10:46:33.418Z,35.57
2018-09-23T10:49:01.487Z,30.60
2018-09-23T10:51:29.531Z,27.50
2018-09-23T10:53:57.598Z,30.80
2018-09-23T10:56:25.635Z,28.33
2018-09-23T10:58:53.686Z,29.97
2018-09-23T11:01:21.819Z,31.57
2018-09-23T11:03:50.279Z,30.57
2018-09-23T11:06:18.730Z,30.03
2018-09-23T11:08:47.050Z,31.43
2018-09-23T11:11:15.520Z,32.50
2018-09-23T11:13:43.952Z,29.83
2018-09-23T11:16:12.300Z,27.80
2018-09-23T11:18:40.627Z,33.07
2018-09-23T11:21:08.951Z,28.00
2018-09-23T11:23:37.271Z,34.90
2018-09-23T11:26:05.673Z,29.20
2018-09-23T11:28:33.925Z,33.30
2018-09-23T11:31:02.366Z,34.97
2018-09-23T11:33:30.678Z,30.53
2018-09-23T11:35:59.154Z,32.83
2018-09-23T11:38:27.521Z,32.07
2018-09-23T11:40:55.814Z,37.33
2018-09-23T11:43:24.745Z,36.53
2018-09-23T11:45:53.097Z,37.40
2018-09-23T11:48:21.377Z,33.83
2018-09-23T11:50:49.790Z,34.80
2018-09-23T11:53:18.189Z,36.03
2018-09-23T11:55:46.577Z,33.17
2018-09-23T11:58:14.929Z,37.47
2018-09-23T12:00:43.303Z,36.67
2018-09-23T12:03:11.638Z,40.60
2018-09-23T12:05:40.035Z,36.60
2018-09-23T12:08:08.349Z,39.37
2018-09-23T12:10:36.616Z,39.45
2018-09-23T12:13:04.901Z,35.10
2018-09-23T12:15:33.302Z,34.43
2018-09-23T12:18:01.623Z,31.77
2018-09-23T12:20:29.933Z,32.37
2018-09-23T12:22:58.209Z,31.93
2018-09-23T12:25:26.581Z,32.77
2018-09-23T12:27:54.890Z,31.97
2018-09-23T12:30:23.175Z,32.60
2018-09-23T12:32:51.466Z,30.47
2018-09-23T12:35:19.734Z,32.43
2018-09-23T12:37:48.226Z,34.03
2018-09-23T12:40:16.554Z,30.97
2018-09-23T12:42:44.958Z,34.20
2018-09-23T12:45:13.242Z,36.03
2018-09-23T12:47:41.532Z,37.73
2018-09-23T12:50:09.902Z,38.80
2018-09-23T12:52:38.303Z,39.60
2018-09-23T12:55:06.766Z,33.70
2018-09-23T12:57:35.174Z,31.67
2018-09-23T13:00:03.754Z,30.33
2018-09-23T13:02:32.155Z,26.33
2018-09-23T13:05:00.395Z,24.37
2018-09-23T13:07:28.679Z,19.80
2018-09-23T13:09:56.962Z,21.10
2018-09-23T13:12:25.309Z,21.10
2018-09-23T13:14:53.558Z,21.20
2018-09-23T13:17:21.844Z,24.00
2018-09-23T13:19:50.398Z,19.77
2018-09-23T13:22:18.705Z,20.30
2018-09-23T13:24:47.088Z,17.53
2018-09-23T13:27:15.558Z,20.80
2018-09-23T13:29:43.867Z,19.65
2018-09-23T13:32:12.122Z,24.07
2018-09-23T13:34:40.414Z,23.50
2018-09-23T13:37:08.866Z,22.57
2018-09-23T13:39:37.830Z,23.45
2018-09-23T13:42:06.246Z,22.30
2018-09-23T13:44:34.538Z,23.70
2018-09-23T13:47:02.911Z,24.10
2018-09-23T13:49:31.255Z,22.22
2018-09-23T13:51:59.666Z,21.43
2018-09-23T13:54:27.820Z,24.83
2018-09-23T13:56:56.083Z,23.03
2018-09-23T13:59:24.991Z,20.30
2018-09-23T14:01:53.415Z,23.87
2018-09-23T14:04:24.694Z,21.33
2018-09-23T14:06:53.123Z,24.13
2018-09-23T14:09:21.344Z,21.40
2018-09-23T14:11:49.538Z,20.77
2018-09-23T14:14:18.290Z,22.50
2018-09-23T14:16:46.315Z,20.63
2018-09-23T14:19:14.907Z,16.50
2018-09-23T14:21:44.971Z,13.50
2018-09-23T14:24:13.003Z,11.50
2018-09-23T14:26:41.439Z,9.70
2018-09-23T14:29:10.072Z,11.63
2018-09-23T14:31:38.526Z,14.13
2018-09-23T14:34:06.990Z,10.53
2018-09-23T14:36:35.728Z,8.57
2018-09-23T14:39:04.683Z,11.47
2018-09-23T14:41:33.159Z,10.27
2018-09-23T14:44:01.763Z,10.40
2018-09-23T14:46:30.388Z,11.37
2018-09-23T14:48:58.889Z,9.03
2018-09-23T14:51:27.246Z,10.10
2018-09-23T14:53:55.744Z,9.47
2018-09-23T14:56:24.227Z,8.17
2018-09-23T14:58:52.552Z,10.90
2018-09-23T15:01:20.896Z,8.03
2018-09-23T15:03:49.272Z,10.10
2018-09-23T15:06:17.853Z,11.10
2018-09-23T15:08:46.228Z,7.80
2018-09-23T15:11:14.532Z,9.07
2018-09-23T15:13:42.893Z,11.23
2018-09-23T15:16:11.132Z,7.33
2018-09-23T15:18:39.372Z,8.27
2018-09-23T15:21:07.687Z,7.40
2018-09-23T15:23:35.956Z,7.67
2018-09-23T15:26:04.316Z,6.07
2018-09-23T15:28:32.644Z,6.73
2018-09-23T15:31:01.048Z,7.93
2018-09-23T15:33:29.391Z,9.27
2018-09-23T15:35:57.697Z,7.97
2018-09-23T15:38:26.328Z,8.60
2018-09-23T15:40:54.628Z,5.93
2018-09-23T15:43:22.928Z,8.27
2018-09-23T15:45:51.219Z,6.47
2018-09-23T15:48:19.495Z,11.13
2018-09-23T15:50:48.143Z,7.60
2018-09-23T15:53:16.552Z,13.43
2018-09-23T15:55:44.836Z,7.83
2018-09-23T15:58:13.141Z,8.90
2018-09-23T16:00:41.416Z,7.87
2018-09-23T16:03:09.652Z,10.40
2018-09-23T16:05:37.991Z,8.33
2018-09-23T16:08:06.572Z,10.10
2018-09-23T16:10:34.884Z,12.27
2018-09-23T16:13:03.147Z,13.50
2018-09-23T16:15:31.407Z,9.47
2018-09-23T16:17:59.695Z,7.37
2018-09-23T16:20:28.064Z,8.67
2018-09-23T16:22:56.348Z,11.40
2018-09-23T16:25:24.632Z,8.40
2018-09-23T16:27:52.879Z,9.47
2018-09-23T16:30:21.299Z,9.70
2018-09-23T16:32:49.611Z,9.87
2018-09-23T16:35:17.903Z,12.03
2018-09-23T16:37:46.273Z,8.57
2018-09-23T16:40:14.584Z,11.73
2018-09-23T16:42:42.892Z,10.10
2018-09-23T16:45:11.203Z,11.40
2018-09-23T16:47:39.629Z,9.43
2018-09-23T16:50:07.912Z,11.10
2018-09-23T16:52:36.236Z,13.17
2018-09-23T16:55:04.500Z,10.77
2018-09-23T16:57:32.804Z,9.47
2018-09-23T17:00:01.077Z,9.63
2018-09-23T17:02:29.409Z,11.93
2018-09-23T17:04:57.714Z,6.13
2018-09-23T17:07:26.822Z,6.90
2018-09-23T17:09:55.145Z,8.00
2018-09-23T17:12:23.493Z,5.23
2018-09-23T17:14:51.756Z,5.40
2018-09-23T17:17:20.020Z,8.33
2018-09-23T17:19:48.376Z,7.73
2018-09-23T17:22:16.628Z,5.30
2018-09-23T17:24:45.060Z,5.50
2018-09-23T17:27:13.433Z,6.73
2018-09-23T17:29:41.761Z,3.97
2018-09-23T17:32:10.276Z,4.37
2018-09-23T17:34:38.676Z,5.50
2018-09-23T17:37:07.258Z,8.73
2018-09-23T17:39:35.653Z,8.40
2018-09-23T17:42:03.933Z,5.70
2018-09-23T17:44:32.350Z,6.17
2018-09-23T17:47:00.669Z,5.73
2018-09-23T17:49:28.992Z,8.37
2018-09-23T17:51:57.290Z,7.20
2018-09-23T17:54:25.658Z,6.90
2018-09-23T17:56:53.942Z,4.37
2018-09-23T17:59:22.263Z,4.40
2018-09-23T18:01:50.596Z,4.00
2018-09-23T18:04:18.869Z,5.33
2018-09-23T18:06:47.207Z,5.73
2018-09-23T18:09:15.455Z,7.63
2018-09-23T18:11:43.757Z,10.18
2018-09-23T18:14:12.157Z,4.80
2018-09-23T18:16:40.463Z,5.65
2018-09-23T18:19:09.084Z,6.03
2018-09-23T18:21:37.663Z,5.80
2018-09-23T18:24:05.973Z,5.93
2018-09-23T18:26:34.312Z,4.37
2018-09-23T18:29:02.670Z,5.13
2018-09-23T18:31:30.977Z,6.73
2018-09-23T18:33:59.217Z,5.80
2018-09-23T18:36:27.506Z,4.17
2018-09-23T18:38:55.769Z,4.80
2018-09-23T18:41:24.142Z,6.67
2018-09-23T18:43:52.506Z,7.10
2018-09-23T18:46:20.782Z,3.83
2018-09-23T18:48:49.063Z,5.13
2018-09-23T18:51:17.350Z,3.77
2018-09-23T18:53:50.906Z,4.47
2018-09-23T18:56:19.202Z,3.00
2018-09-23T18:58:47.563Z,6.17
2018-09-23T19:01:15.863Z,3.13
2018-09-23T19:03:44.183Z,5.33
2018-09-23T19:06:12.466Z,5.50
2018-09-23T19:08:40.779Z,3.70
2018-09-23T19:11:09.867Z,5.90
2018-09-23T19:13:43.571Z,4.90
2018-09-23T19:16:17.300Z,4.93
2018-09-23T19:18:45.583Z,6.43
2018-09-23T19:21:13.895Z,4.50
2018-09-23T19:23:42.252Z,3.87
2018-09-23T19:26:10.599Z,6.30
2018-09-23T19:28:38.883Z,5.50
2018-09-23T19:31:07.239Z,6.60
2018-09-23T19:33:35.528Z,3.83
2018-09-23T19:36:03.867Z,5.63
2018-09-23T19:38:32.255Z,4.37
2018-09-23T19:41:00.547Z,7.60
2018-09-23T19:43:28.923Z,5.23
2018-09-23T19:45:57.351Z,6.43
2018-09-23T19:48:25.674Z,6.67
2018-09-23T19:50:54.003Z,5.93
2018-09-23T19:53:22.371Z,4.90
2018-09-23T19:55:50.998Z,6.60
2018-09-23T19:58:19.816Z,7.33
2018-09-23T20:00:48.140Z,3.63
2018-09-23T20:03:16.547Z,5.40
2018-09-23T20:05:44.860Z,7.37
2018-09-23T20:08:13.132Z,6.07
2018-09-23T20:10:41.422Z,5.87
2018-09-23T20:13:09.896Z,4.63
2018-09-23T20:15:38.217Z,5.13
2018-09-23T20:18:06.634Z,6.73
2018-09-23T20:20:34.984Z,5.07
2018-09-23T20:23:03.280Z,7.57
2018-09-23T20:25:31.623Z,4.20
2018-09-23T20:27:59.931Z,5.03
2018-09-23T20:30:28.272Z,4.33
2018-09-23T20:32:56.588Z,4.80
2018-09-23T20:35:24.888Z,4.27
2018-09-23T20:37:53.241Z,4.47
2018-09-23T20:40:21.540Z,4.43
2018-09-23T20:42:49.804Z,3.70
2018-09-23T20:45:18.156Z,5.03
2018-09-23T20:47:46.508Z,4.70
2018-09-23T20:50:14.745Z,5.90
2018-09-23T20:52:43.104Z,5.93
2018-09-23T20:55:11.437Z,4.03
2018-09-23T20:57:39.716Z,4.97
2018-09-23T21:00:08.153Z,3.47
2018-09-23T21:02:36.409Z,4.05
2018-09-23T21:05:04.984Z,5.03
2018-09-23T21:07:33.281Z,2.13
2018-09-23T21:10:01.629Z,5.37
2018-09-23T21:12:29.908Z,4.03
2018-09-23T21:14:58.188Z,8.75
2018-09-23T21:17:26.537Z,5.97
2018-09-23T21:19:54.836Z,7.10
2018-09-23T21:22:23.157Z,4.97
2018-09-23T21:24:52.437Z,6.17
2018-09-23T21:27:20.744Z,5.87
2018-09-23T21:29:49.304Z,4.57
2018-09-23T21:32:17.604Z,6.10
2018-09-23T21:34:45.896Z,6.43
2018-09-23T21:37:14.256Z,3.57
2018-09-23T21:39:42.573Z,8.13
2018-09-23T21:42:10.904Z,5.10
2018-09-23T21:44:39.180Z,5.60
2018-09-23T21:47:07.844Z,6.10
2018-09-23T21:49:36.137Z,4.47
2018-09-23T21:52:04.380Z,7.70
2018-09-23T21:54:32.705Z,4.37
2018-09-23T21:57:01.017Z,4.47
2018-09-23T21:59:29.050Z,4.90
2018-09-23T22:01:57.357Z,8.40
2018-09-23T22:04:25.757Z,6.43
2018-09-23T22:06:54.042Z,4.73
2018-09-23T22:09:22.305Z,6.17
2018-09-23T22:11:50.546Z,7.63
2018-09-23T22:14:18.791Z,5.47
2018-09-23T22:16:47.098Z,4.17
2018-09-23T22:19:21.853Z,6.50
2018-09-23T22:21:50.263Z,5.57
2018-09-23T22:24:18.474Z,5.73
2018-09-23T22:26:46.869Z,4.80
2018-09-23T22:29:15.157Z,8.60
2018-09-23T22:31:43.385Z,8.53
2018-09-23T22:34:11.714Z,7.13
2018-09-23T22:36:40.090Z,6.50
2018-09-23T22:39:08.555Z,8.63
2018-09-23T22:41:36.806Z,5.17
2018-09-23T22:44:05.197Z,5.33
2018-09-23T22:46:33.526Z,7.40
2018-09-23T22:49:01.808Z,8.30
2018-09-23T22:51:30.161Z,4.77
2018-09-23T22:53:58.397Z,6.07
2018-09-23T22:56:26.674Z,9.10
2018-09-23T22:58:54.914Z,6.03
2018-09-23T23:01:23.237Z,6.63
2018-09-23T23:03:51.494Z,7.13
2018-09-23T23:06:19.757Z,9.85
2018-09-23T23:08:48.031Z,8.73
2018-09-23T23:11:16.298Z,6.30
2018-09-23T23:13:44.693Z,9.37
2018-09-23T23:16:13.102Z,3.40
2018-09-23T23:18:41.397Z,7.53
2018-09-23T23:21:09.746Z,7.10
2018-09-23T23:23:38.082Z,5.53
2018-09-23T23:26:06.354Z,6.87
2018-09-23T23:28:34.595Z,4.93
2018-09-23T23:31:02.854Z,5.37
2018-09-23T23:33:31.146Z,6.73
2018-09-23T23:35:59.386Z,8.43
2018-09-23T23:38:27.714Z,4.40
2018-09-23T23:40:56.016Z,7.33
2018-09-23T23:43:24.295Z,5.93
2018-09-23T23:45:52.607Z,6.40
2018-09-23T23:48:20.937Z,4.97
2018-09-23T23:50:49.178Z,5.83
2018-09-23T23:53:17.471Z,7.17
2018-09-23T23:55:45.726Z,3.80
2018-09-23T23:58:13.979Z,5.20
